sensor_id;sensor_type;location;lat;lon;timestamp;temperature;humidity
44579;DHT22;37422;51.402;0.016;2023-02-15T00:01:35;2.40;99.90
44579;DHT22;37422;51.402;0.016;2023-02-15T00:04:04;2.40;99.90
44579;DHT22;37422;51.402;0.016;2023-02-15T00:06:31;2.40;99.90
44579;DHT22;37422;51.402;0.016;2023-02-15T00:08:59;2.40;99.90
44579;DHT22;37422;51.402;0.016;2023-02-15T00:11:28;2.40;99.90
44579;DHT22;37422;51.402;0.016;2023-02-15T00:14:15;2.40;99.90
44579;DHT22;37422;51.402;0.016;2023-02-15T00:16:43;2.30;99.90
44579;DHT22;37422;51.402;0.016;2023-02-15T00:19:12;2.30;99.90
44579;DHT22;37422;51.402;0.016;2023-02-15T00:21:40;2.30;99.90
44579;DHT22;37422;51.402;0.016;2023-02-15T00:24:09;2.30;99.90
44579;DHT22;37422;51.402;0.016;2023-02-15T00:26:38;2.30;99.90
44579;DHT22;37422;51.402;0.016;2023-02-15T00:29:06;2.30;99.90
44579;DHT22;37422;51.402;0.016;2023-02-15T00:31:34;2.30;99.90
44579;DHT22;37422;51.402;0.016;2023-02-15T00:34:03;2.20;99.90
44579;DHT22;37422;51.402;0.016;2023-02-15T00:36:31;2.20;99.90
44579;DHT22;37422;51.402;0.016;2023-02-15T00:38:58;2.20;99.90
44579;DHT22;37422;51.402;0.016;2023-02-15T00:41:26;2.20;99.90
44579;DHT22;37422;51.402;0.016;2023-02-15T00:43:54;2.10;99.90
44579;DHT22;37422;51.402;0.016;2023-02-15T00:46:22;2.10;99.90
44579;DHT22;37422;51.402;0.016;2023-02-15T00:48:49;2.10;99.90
44579;DHT22;37422;51.402;0.016;2023-02-15T00:51:17;2.10;99.90
44579;DHT22;37422;51.402;0.016;2023-02-15T00:53:45;2.20;99.90
44579;DHT22;37422;51.402;0.016;2023-02-15T00:56:20;2.20;99.90
44579;DHT22;37422;51.402;0.016;2023-02-15T00:58:47;2.20;99.90
44579;DHT22;37422;51.402;0.016;2023-02-15T01:01:16;2.30;99.90
44579;DHT22;37422;51.402;0.016;2023-02-15T01:03:44;2.40;99.90
44579;DHT22;37422;51.402;0.016;2023-02-15T01:06:14;2.50;99.90
44579;DHT22;37422;51.402;0.016;2023-02-15T01:08:43;2.60;99.90
44579;DHT22;37422;51.402;0.016;2023-02-15T01:11:11;2.70;99.90
44579;DHT22;37422;51.402;0.016;2023-02-15T01:13:39;2.80;99.90
44579;DHT22;37422;51.402;0.016;2023-02-15T01:16:07;2.90;99.90
44579;DHT22;37422;51.402;0.016;2023-02-15T01:18:35;2.90;99.90
44579;DHT22;37422;51.402;0.016;2023-02-15T01:21:12;2.90;99.90
44579;DHT22;37422;51.402;0.016;2023-02-15T01:23:43;2.90;99.90
44579;DHT22;37422;51.402;0.016;2023-02-15T01:26:12;2.90;99.90
44579;DHT22;37422;51.402;0.016;2023-02-15T01:28:42;2.90;99.90
44579;DHT22;37422;51.402;0.016;2023-02-15T01:31:16;2.90;99.90
44579;DHT22;37422;51.402;0.016;2023-02-15T01:33:45;2.80;99.90
44579;DHT22;37422;51.402;0.016;2023-02-15T01:36:13;2.90;99.90
44579;DHT22;37422;51.402;0.016;2023-02-15T01:38:41;2.90;99.90
44579;DHT22;37422;51.402;0.016;2023-02-15T01:41:09;2.80;99.90
44579;DHT22;37422;51.402;0.016;2023-02-15T01:43:54;2.90;99.90
44579;DHT22;37422;51.402;0.016;2023-02-15T01:46:24;2.90;99.90
44579;DHT22;37422;51.402;0.016;2023-02-15T01:48:56;2.90;99.90
44579;DHT22;37422;51.402;0.016;2023-02-15T01:51:28;2.90;99.90
44579;DHT22;37422;51.402;0.016;2023-02-15T01:53:59;2.90;99.90
44579;DHT22;37422;51.402;0.016;2023-02-15T01:56:29;2.90;99.90
44579;DHT22;37422;51.402;0.016;2023-02-15T01:58:58;2.90;99.90
44579;DHT22;37422;51.402;0.016;2023-02-15T02:01:27;3.00;99.90
44579;DHT22;37422;51.402;0.016;2023-02-15T02:06:34;3.00;99.90
44579;DHT22;37422;51.402;0.016;2023-02-15T02:09:03;3.00;99.90
44579;DHT22;37422;51.402;0.016;2023-02-15T02:11:30;3.10;99.90
44579;DHT22;37422;51.402;0.016;2023-02-15T02:13:58;3.10;99.90
44579;DHT22;37422;51.402;0.016;2023-02-15T02:30:06;3.10;99.90
44579;DHT22;37422;51.402;0.016;2023-02-15T02:35:16;3.10;99.90
44579;DHT22;37422;51.402;0.016;2023-02-15T02:38:02;3.10;99.90
44579;DHT22;37422;51.402;0.016;2023-02-15T02:43:29;3.20;99.90
44579;DHT22;37422;51.402;0.016;2023-02-15T02:46:05;3.20;99.90
44579;DHT22;37422;51.402;0.016;2023-02-15T02:48:34;3.30;99.90
44579;DHT22;37422;51.402;0.016;2023-02-15T02:51:02;3.30;99.90
44579;DHT22;37422;51.402;0.016;2023-02-15T02:53:29;3.30;99.90
44579;DHT22;37422;51.402;0.016;2023-02-15T02:58:31;3.30;99.90
44579;DHT22;37422;51.402;0.016;2023-02-15T03:03:33;3.30;99.90
44579;DHT22;37422;51.402;0.016;2023-02-15T03:06:03;3.30;99.90
44579;DHT22;37422;51.402;0.016;2023-02-15T03:08:34;3.30;99.90
44579;DHT22;37422;51.402;0.016;2023-02-15T03:11:03;3.20;99.90
44579;DHT22;37422;51.402;0.016;2023-02-15T03:13:30;3.20;99.90
44579;DHT22;37422;51.402;0.016;2023-02-15T03:15:59;3.10;99.90
44579;DHT22;37422;51.402;0.016;2023-02-15T03:18:48;3.10;99.90
44579;DHT22;37422;51.402;0.016;2023-02-15T03:21:25;3.10;99.90
44579;DHT22;37422;51.402;0.016;2023-02-15T03:23:57;3.00;99.90
44579;DHT22;37422;51.402;0.016;2023-02-15T03:26:26;3.00;99.90
44579;DHT22;37422;51.402;0.016;2023-02-15T03:28:55;2.90;99.90
44579;DHT22;37422;51.402;0.016;2023-02-15T03:31:24;2.90;99.90
44579;DHT22;37422;51.402;0.016;2023-02-15T03:34:03;2.90;99.90
44579;DHT22;37422;51.402;0.016;2023-02-15T03:39:05;2.90;99.90
44579;DHT22;37422;51.402;0.016;2023-02-15T03:41:36;2.90;99.90
44579;DHT22;37422;51.402;0.016;2023-02-15T03:44:07;2.90;99.90
44579;DHT22;37422;51.402;0.016;2023-02-15T03:49:11;2.80;99.90
44579;DHT22;37422;51.402;0.016;2023-02-15T03:51:40;2.80;99.90
44579;DHT22;37422;51.402;0.016;2023-02-15T03:56:37;2.80;99.90
44579;DHT22;37422;51.402;0.016;2023-02-15T03:59:05;2.90;99.90
44579;DHT22;37422;51.402;0.016;2023-02-15T04:04:39;3.10;99.90
44579;DHT22;37422;51.402;0.016;2023-02-15T04:07:08;3.30;99.90
44579;DHT22;37422;51.402;0.016;2023-02-15T04:09:36;3.40;99.90
44579;DHT22;37422;51.402;0.016;2023-02-15T04:12:22;3.60;99.90
44579;DHT22;37422;51.402;0.016;2023-02-15T04:14:49;3.70;99.90
44579;DHT22;37422;51.402;0.016;2023-02-15T04:17:45;3.80;99.90
44579;DHT22;37422;51.402;0.016;2023-02-15T04:20:12;3.80;99.90
44579;DHT22;37422;51.402;0.016;2023-02-15T04:22:59;3.80;99.90
44579;DHT22;37422;51.402;0.016;2023-02-15T04:25:45;3.80;99.90
44579;DHT22;37422;51.402;0.016;2023-02-15T04:28:12;3.70;99.90
44579;DHT22;37422;51.402;0.016;2023-02-15T04:30:40;3.60;99.90
44579;DHT22;37422;51.402;0.016;2023-02-15T04:33:08;3.50;99.90
44579;DHT22;37422;51.402;0.016;2023-02-15T04:35:43;3.40;99.90
44579;DHT22;37422;51.402;0.016;2023-02-15T04:38:12;3.30;99.90
44579;DHT22;37422;51.402;0.016;2023-02-15T04:40:40;3.20;99.90
44579;DHT22;37422;51.402;0.016;2023-02-15T04:43:08;3.10;99.90
44579;DHT22;37422;51.402;0.016;2023-02-15T04:45:36;3.10;99.90
44579;DHT22;37422;51.402;0.016;2023-02-15T04:48:04;3.00;99.90
44579;DHT22;37422;51.402;0.016;2023-02-15T04:50:31;2.90;99.90
44579;DHT22;37422;51.402;0.016;2023-02-15T04:53:02;2.90;99.90
44579;DHT22;37422;51.402;0.016;2023-02-15T04:55:29;2.90;99.90
44579;DHT22;37422;51.402;0.016;2023-02-15T04:57:57;2.80;99.90
44579;DHT22;37422;51.402;0.016;2023-02-15T05:00:25;2.80;99.90
44579;DHT22;37422;51.402;0.016;2023-02-15T05:02:52;2.80;99.90
44579;DHT22;37422;51.402;0.016;2023-02-15T05:05:23;2.80;99.90
44579;DHT22;37422;51.402;0.016;2023-02-15T05:07:51;2.80;99.90
44579;DHT22;37422;51.402;0.016;2023-02-15T05:10:19;2.80;99.90
44579;DHT22;37422;51.402;0.016;2023-02-15T05:12:46;2.80;99.90
44579;DHT22;37422;51.402;0.016;2023-02-15T05:15:14;2.90;99.90
44579;DHT22;37422;51.402;0.016;2023-02-15T05:17:46;2.80;99.90
44579;DHT22;37422;51.402;0.016;2023-02-15T05:20:14;2.80;99.90
44579;DHT22;37422;51.402;0.016;2023-02-15T05:22:41;2.80;99.90
44579;DHT22;37422;51.402;0.016;2023-02-15T05:25:09;2.90;99.90
44579;DHT22;37422;51.402;0.016;2023-02-15T05:27:58;2.90;99.90
44579;DHT22;37422;51.402;0.016;2023-02-15T05:30:49;2.90;99.90
44579;DHT22;37422;51.402;0.016;2023-02-15T05:33:17;2.90;99.90
44579;DHT22;37422;51.402;0.016;2023-02-15T05:35:45;2.90;99.90
44579;DHT22;37422;51.402;0.016;2023-02-15T05:38:16;2.90;99.90
44579;DHT22;37422;51.402;0.016;2023-02-15T05:40:43;2.90;99.90
44579;DHT22;37422;51.402;0.016;2023-02-15T05:43:11;3.00;99.90
44579;DHT22;37422;51.402;0.016;2023-02-15T05:45:39;3.00;99.90
44579;DHT22;37422;51.402;0.016;2023-02-15T05:48:07;3.00;99.90
44579;DHT22;37422;51.402;0.016;2023-02-15T05:50:34;3.00;99.90
44579;DHT22;37422;51.402;0.016;2023-02-15T05:53:02;3.00;99.90
44579;DHT22;37422;51.402;0.016;2023-02-15T05:55:30;3.00;99.90
44579;DHT22;37422;51.402;0.016;2023-02-15T05:57:57;3.00;99.90
44579;DHT22;37422;51.402;0.016;2023-02-15T06:00:25;3.00;99.90
44579;DHT22;37422;51.402;0.016;2023-02-15T06:02:52;3.00;99.90
44579;DHT22;37422;51.402;0.016;2023-02-15T06:05:20;3.00;99.90
44579;DHT22;37422;51.402;0.016;2023-02-15T06:07:48;3.00;99.90
44579;DHT22;37422;51.402;0.016;2023-02-15T06:10:16;3.00;99.90
44579;DHT22;37422;51.402;0.016;2023-02-15T06:12:50;3.00;99.90
44579;DHT22;37422;51.402;0.016;2023-02-15T06:15:19;3.00;99.90
44579;DHT22;37422;51.402;0.016;2023-02-15T06:17:47;3.00;99.90
44579;DHT22;37422;51.402;0.016;2023-02-15T06:20:15;3.00;99.90
44579;DHT22;37422;51.402;0.016;2023-02-15T06:22:42;3.00;99.90
44579;DHT22;37422;51.402;0.016;2023-02-15T06:25:30;3.00;99.90
44579;DHT22;37422;51.402;0.016;2023-02-15T06:27:58;3.00;99.90
44579;DHT22;37422;51.402;0.016;2023-02-15T06:30:26;3.00;99.90
44579;DHT22;37422;51.402;0.016;2023-02-15T06:32:53;3.00;99.90
44579;DHT22;37422;51.402;0.016;2023-02-15T06:35:21;3.00;99.90
44579;DHT22;37422;51.402;0.016;2023-02-15T06:37:49;3.00;99.90
44579;DHT22;37422;51.402;0.016;2023-02-15T06:40:17;3.00;99.90
44579;DHT22;37422;51.402;0.016;2023-02-15T06:42:45;3.00;99.90
44579;DHT22;37422;51.402;0.016;2023-02-15T06:45:13;3.00;99.90
44579;DHT22;37422;51.402;0.016;2023-02-15T06:47:41;3.00;99.90
44579;DHT22;37422;51.402;0.016;2023-02-15T06:50:12;2.90;99.90
44579;DHT22;37422;51.402;0.016;2023-02-15T06:52:40;2.90;99.90
44579;DHT22;37422;51.402;0.016;2023-02-15T06:55:08;2.90;99.90
44579;DHT22;37422;51.402;0.016;2023-02-15T06:57:36;2.90;99.90
44579;DHT22;37422;51.402;0.016;2023-02-15T07:00:12;2.90;99.90
44579;DHT22;37422;51.402;0.016;2023-02-15T07:02:44;2.90;99.90
44579;DHT22;37422;51.402;0.016;2023-02-15T07:05:15;2.90;99.90
44579;DHT22;37422;51.402;0.016;2023-02-15T07:07:43;2.90;99.90
44579;DHT22;37422;51.402;0.016;2023-02-15T07:10:10;2.90;99.90
44579;DHT22;37422;51.402;0.016;2023-02-15T07:12:38;3.00;99.90
44579;DHT22;37422;51.402;0.016;2023-02-15T07:15:17;3.00;99.90
44579;DHT22;37422;51.402;0.016;2023-02-15T07:17:45;3.00;99.90
44579;DHT22;37422;51.402;0.016;2023-02-15T07:20:18;3.00;99.90
44579;DHT22;37422;51.402;0.016;2023-02-15T07:22:46;3.00;99.90
44579;DHT22;37422;51.402;0.016;2023-02-15T07:25:14;3.00;99.90
44579;DHT22;37422;51.402;0.016;2023-02-15T07:27:42;3.10;99.90
44579;DHT22;37422;51.402;0.016;2023-02-15T07:30:11;3.10;99.90
44579;DHT22;37422;51.402;0.016;2023-02-15T07:32:39;3.20;99.90
44579;DHT22;37422;51.402;0.016;2023-02-15T07:35:30;3.30;99.90
44579;DHT22;37422;51.402;0.016;2023-02-15T07:37:58;3.50;99.90
44579;DHT22;37422;51.402;0.016;2023-02-15T07:40:25;3.60;99.90
44579;DHT22;37422;51.402;0.016;2023-02-15T07:42:53;3.80;99.90
44579;DHT22;37422;51.402;0.016;2023-02-15T07:45:22;3.90;99.90
44579;DHT22;37422;51.402;0.016;2023-02-15T07:47:49;4.00;99.90
44579;DHT22;37422;51.402;0.016;2023-02-15T07:50:16;4.20;99.90
44579;DHT22;37422;51.402;0.016;2023-02-15T07:52:44;4.30;99.90
44579;DHT22;37422;51.402;0.016;2023-02-15T07:55:21;4.50;99.90
44579;DHT22;37422;51.402;0.016;2023-02-15T07:57:49;4.70;99.90
44579;DHT22;37422;51.402;0.016;2023-02-15T08:00:18;4.80;99.90
44579;DHT22;37422;51.402;0.016;2023-02-15T08:02:48;5.00;99.90
44579;DHT22;37422;51.402;0.016;2023-02-15T08:05:18;5.10;99.90
44579;DHT22;37422;51.402;0.016;2023-02-15T08:07:52;5.30;99.90
44579;DHT22;37422;51.402;0.016;2023-02-15T08:10:23;5.40;99.90
44579;DHT22;37422;51.402;0.016;2023-02-15T08:13:11;5.50;99.90
44579;DHT22;37422;51.402;0.016;2023-02-15T08:15:39;5.60;99.90
44579;DHT22;37422;51.402;0.016;2023-02-15T08:18:10;5.80;99.90
44579;DHT22;37422;51.402;0.016;2023-02-15T08:20:48;5.90;99.90
44579;DHT22;37422;51.402;0.016;2023-02-15T08:23:16;6.10;99.90
44579;DHT22;37422;51.402;0.016;2023-02-15T08:25:44;6.30;99.90
44579;DHT22;37422;51.402;0.016;2023-02-15T08:28:12;6.50;99.90
44579;DHT22;37422;51.402;0.016;2023-02-15T08:30:40;6.70;99.90
44579;DHT22;37422;51.402;0.016;2023-02-15T08:33:25;6.90;99.90
44579;DHT22;37422;51.402;0.016;2023-02-15T08:35:56;7.00;99.90
44579;DHT22;37422;51.402;0.016;2023-02-15T08:38:29;7.20;99.90
44579;DHT22;37422;51.402;0.016;2023-02-15T08:41:10;7.40;99.90
44579;DHT22;37422;51.402;0.016;2023-02-15T08:43:38;7.50;99.90
44579;DHT22;37422;51.402;0.016;2023-02-15T08:46:06;7.60;99.90
44579;DHT22;37422;51.402;0.016;2023-02-15T08:48:36;7.70;99.90
44579;DHT22;37422;51.402;0.016;2023-02-15T08:51:18;7.90;99.90
44579;DHT22;37422;51.402;0.016;2023-02-15T08:53:48;8.00;99.90
44579;DHT22;37422;51.402;0.016;2023-02-15T08:56:20;8.20;99.90
44579;DHT22;37422;51.402;0.016;2023-02-15T08:58:47;8.40;99.90
44579;DHT22;37422;51.402;0.016;2023-02-15T09:01:20;8.50;99.90
44579;DHT22;37422;51.402;0.016;2023-02-15T09:03:49;8.80;99.90
44579;DHT22;37422;51.402;0.016;2023-02-15T09:06:17;9.10;99.90
44579;DHT22;37422;51.402;0.016;2023-02-15T09:08:44;9.40;99.90
44579;DHT22;37422;51.402;0.016;2023-02-15T09:11:16;9.70;99.90
44579;DHT22;37422;51.402;0.016;2023-02-15T09:13:53;10.10;99.90
44579;DHT22;37422;51.402;0.016;2023-02-15T09:16:21;10.40;99.90
44579;DHT22;37422;51.402;0.016;2023-02-15T09:18:49;10.70;99.90
44579;DHT22;37422;51.402;0.016;2023-02-15T09:21:18;11.10;99.90
44579;DHT22;37422;51.402;0.016;2023-02-15T09:23:46;11.40;99.90
44579;DHT22;37422;51.402;0.016;2023-02-15T09:26:16;11.60;99.90
44579;DHT22;37422;51.402;0.016;2023-02-15T09:28:50;11.90;99.90
44579;DHT22;37422;51.402;0.016;2023-02-15T09:32:23;12.10;99.90
44579;DHT22;37422;51.402;0.016;2023-02-15T09:34:50;12.20;99.90
44579;DHT22;37422;51.402;0.016;2023-02-15T09:37:21;12.30;99.90
44579;DHT22;37422;51.402;0.016;2023-02-15T09:40:03;12.30;99.90
44579;DHT22;37422;51.402;0.016;2023-02-15T09:56:15;12.80;99.90
44579;DHT22;37422;51.402;0.016;2023-02-15T10:23:58;13.70;99.90
44579;DHT22;37422;51.402;0.016;2023-02-15T10:29:52;13.80;99.90
44579;DHT22;37422;51.402;0.016;2023-02-15T10:33:08;13.90;99.90
44579;DHT22;37422;51.402;0.016;2023-02-15T10:40:04;14.10;99.90
44579;DHT22;37422;51.402;0.016;2023-02-15T10:42:56;14.40;99.90
44579;DHT22;37422;51.402;0.016;2023-02-15T11:08:59;15.80;98.30
44579;DHT22;37422;51.402;0.016;2023-02-15T11:11:31;16.50;97.20
44579;DHT22;37422;51.402;0.016;2023-02-15T11:17:29;17.50;96.30
44579;DHT22;37422;51.402;0.016;2023-02-15T11:23:12;19.10;95.70
44579;DHT22;37422;51.402;0.016;2023-02-15T11:30:45;20.20;92.80
44579;DHT22;37422;51.402;0.016;2023-02-15T11:38:21;21.40;89.90
44579;DHT22;37422;51.402;0.016;2023-02-15T11:44:06;21.80;88.00
44579;DHT22;37422;51.402;0.016;2023-02-15T11:46:53;22.20;83.00
44579;DHT22;37422;51.402;0.016;2023-02-15T11:49:22;22.30;83.10
44579;DHT22;37422;51.402;0.016;2023-02-15T11:51:50;22.10;83.40
44579;DHT22;37422;51.402;0.016;2023-02-15T11:54:20;22.00;85.60
44579;DHT22;37422;51.402;0.016;2023-02-15T11:56:49;21.90;83.70
44579;DHT22;37422;51.402;0.016;2023-02-15T11:59:19;21.80;81.40
44579;DHT22;37422;51.402;0.016;2023-02-15T12:02:01;21.20;81.60
44579;DHT22;37422;51.402;0.016;2023-02-15T12:07:55;20.80;81.00
44579;DHT22;37422;51.402;0.016;2023-02-15T12:10:31;20.70;82.30
44579;DHT22;37422;51.402;0.016;2023-02-15T12:13:14;21.10;82.90
44579;DHT22;37422;51.402;0.016;2023-02-15T12:15:43;21.30;82.40
44579;DHT22;37422;51.402;0.016;2023-02-15T12:20:59;21.70;83.10
44579;DHT22;37422;51.402;0.016;2023-02-15T12:23:30;22.10;80.90
44579;DHT22;37422;51.402;0.016;2023-02-15T12:25:59;22.20;80.70
44579;DHT22;37422;51.402;0.016;2023-02-15T12:28:34;22.40;79.70
44579;DHT22;37422;51.402;0.016;2023-02-15T12:31:21;22.40;80.80
44579;DHT22;37422;51.402;0.016;2023-02-15T12:33:53;22.50;80.90
44579;DHT22;37422;51.402;0.016;2023-02-15T12:36:25;22.60;80.40
44579;DHT22;37422;51.402;0.016;2023-02-15T12:42:14;22.10;78.40
44579;DHT22;37422;51.402;0.016;2023-02-15T12:44:33;22.30;76.80
44579;DHT22;37422;51.402;0.016;2023-02-15T12:47:03;22.40;78.60
44579;DHT22;37422;51.402;0.016;2023-02-15T12:49:32;22.60;77.30
44579;DHT22;37422;51.402;0.016;2023-02-15T12:59:36;22.50;76.30
44579;DHT22;37422;51.402;0.016;2023-02-15T13:02:05;22.70;73.00
44579;DHT22;37422;51.402;0.016;2023-02-15T13:04:36;22.70;74.30
44579;DHT22;37422;51.402;0.016;2023-02-15T13:07:14;22.50;72.60
44579;DHT22;37422;51.402;0.016;2023-02-15T13:09:42;22.50;74.70
44579;DHT22;37422;51.402;0.016;2023-02-15T13:14:37;22.60;72.00
44579;DHT22;37422;51.402;0.016;2023-02-15T13:17:07;22.80;74.40
44579;DHT22;37422;51.402;0.016;2023-02-15T13:19:59;22.80;71.60
44579;DHT22;37422;51.402;0.016;2023-02-15T13:22:28;22.40;71.80
44579;DHT22;37422;51.402;0.016;2023-02-15T13:25:09;22.00;72.60
44579;DHT22;37422;51.402;0.016;2023-02-15T13:27:39;21.80;73.00
44579;DHT22;37422;51.402;0.016;2023-02-15T13:32:55;20.20;75.70
44579;DHT22;37422;51.402;0.016;2023-02-15T13:35:23;19.20;77.90
44579;DHT22;37422;51.402;0.016;2023-02-15T13:43:17;17.30;80.50
44579;DHT22;37422;51.402;0.016;2023-02-15T13:51:26;16.20;83.70
44579;DHT22;37422;51.402;0.016;2023-02-15T14:01:47;15.70;85.90
44579;DHT22;37422;51.402;0.016;2023-02-15T14:15:05;15.40;87.40
44579;DHT22;37422;51.402;0.016;2023-02-15T14:20:24;15.30;88.00
44579;DHT22;37422;51.402;0.016;2023-02-15T14:22:57;15.20;88.30
44579;DHT22;37422;51.402;0.016;2023-02-15T14:25:37;15.20;88.50
44579;DHT22;37422;51.402;0.016;2023-02-15T14:28:19;15.20;88.80
44579;DHT22;37422;51.402;0.016;2023-02-15T14:30:52;15.10;88.90
44579;DHT22;37422;51.402;0.016;2023-02-15T14:33:37;15.10;89.10
44579;DHT22;37422;51.402;0.016;2023-02-15T14:36:06;15.10;89.00
44579;DHT22;37422;51.402;0.016;2023-02-15T14:38:44;15.10;89.30
44579;DHT22;37422;51.402;0.016;2023-02-15T14:41:18;15.00;89.30
44579;DHT22;37422;51.402;0.016;2023-02-15T14:43:55;15.00;89.60
44579;DHT22;37422;51.402;0.016;2023-02-15T14:48:55;14.90;90.00
44579;DHT22;37422;51.402;0.016;2023-02-15T14:56:46;14.90;90.20
44579;DHT22;37422;51.402;0.016;2023-02-15T15:02:14;14.80;90.60
44579;DHT22;37422;51.402;0.016;2023-02-15T15:07:46;14.70;90.90
44579;DHT22;37422;51.402;0.016;2023-02-15T15:12:48;14.70;91.00
44579;DHT22;37422;51.402;0.016;2023-02-15T15:18:04;14.60;91.00
44579;DHT22;37422;51.402;0.016;2023-02-15T15:25:42;14.50;91.50
44579;DHT22;37422;51.402;0.016;2023-02-15T15:31:00;14.50;91.50
44579;DHT22;37422;51.402;0.016;2023-02-15T15:33:57;14.40;91.50
44579;DHT22;37422;51.402;0.016;2023-02-15T15:41:40;14.30;91.70
44579;DHT22;37422;51.402;0.016;2023-02-15T15:49:19;14.20;92.10
44579;DHT22;37422;51.402;0.016;2023-02-15T15:51:47;14.20;92.10
44579;DHT22;37422;51.402;0.016;2023-02-15T15:56:44;14.10;92.30
44579;DHT22;37422;51.402;0.016;2023-02-15T15:59:18;14.00;92.70
44579;DHT22;37422;51.402;0.016;2023-02-15T16:01:46;13.90;92.30
44579;DHT22;37422;51.402;0.016;2023-02-15T16:04:22;13.90;92.30
44579;DHT22;37422;51.402;0.016;2023-02-15T16:06:51;13.80;92.30
44579;DHT22;37422;51.402;0.016;2023-02-15T16:09:20;13.80;92.40
44579;DHT22;37422;51.402;0.016;2023-02-15T16:11:49;13.70;92.50
44579;DHT22;37422;51.402;0.016;2023-02-15T16:16:52;13.60;92.50
44579;DHT22;37422;51.402;0.016;2023-02-15T16:19:22;13.60;92.50
44579;DHT22;37422;51.402;0.016;2023-02-15T16:21:51;13.50;92.40
44579;DHT22;37422;51.402;0.016;2023-02-15T16:27:02;13.40;92.60
44579;DHT22;37422;51.402;0.016;2023-02-15T16:29:37;13.30;92.80
44579;DHT22;37422;51.402;0.016;2023-02-15T16:32:14;13.20;92.80
44579;DHT22;37422;51.402;0.016;2023-02-15T16:34:58;13.20;92.90
44579;DHT22;37422;51.402;0.016;2023-02-15T16:37:27;13.10;93.00
44579;DHT22;37422;51.402;0.016;2023-02-15T16:39:58;13.00;93.50
44579;DHT22;37422;51.402;0.016;2023-02-15T16:42:26;13.00;93.20
44579;DHT22;37422;51.402;0.016;2023-02-15T16:45:12;12.90;93.20
44579;DHT22;37422;51.402;0.016;2023-02-15T16:47:41;12.80;93.40
44579;DHT22;37422;51.402;0.016;2023-02-15T16:50:17;12.70;93.50
44579;DHT22;37422;51.402;0.016;2023-02-15T16:52:49;12.70;93.60
44579;DHT22;37422;51.402;0.016;2023-02-15T16:55:21;12.60;93.70
44579;DHT22;37422;51.402;0.016;2023-02-15T16:57:49;12.50;93.90
44579;DHT22;37422;51.402;0.016;2023-02-15T17:00:24;12.50;94.00
44579;DHT22;37422;51.402;0.016;2023-02-15T17:03:38;12.40;94.10
44579;DHT22;37422;51.402;0.016;2023-02-15T17:05:57;12.30;94.20
44579;DHT22;37422;51.402;0.016;2023-02-15T17:13:32;12.10;94.80
44579;DHT22;37422;51.402;0.016;2023-02-15T17:18:32;11.90;94.80
44579;DHT22;37422;51.402;0.016;2023-02-15T17:21:12;11.90;95.10
44579;DHT22;37422;51.402;0.016;2023-02-15T17:23:41;11.80;95.30
44579;DHT22;37422;51.402;0.016;2023-02-15T17:26:19;11.80;95.20
44579;DHT22;37422;51.402;0.016;2023-02-15T17:28:53;11.70;95.40
44579;DHT22;37422;51.402;0.016;2023-02-15T17:31:32;11.70;95.50
44579;DHT22;37422;51.402;0.016;2023-02-15T17:34:00;11.60;95.80
44579;DHT22;37422;51.402;0.016;2023-02-15T17:36:30;11.60;96.10
44579;DHT22;37422;51.402;0.016;2023-02-15T17:39:06;11.60;95.80
44579;DHT22;37422;51.402;0.016;2023-02-15T17:41:45;11.50;96.00
44579;DHT22;37422;51.402;0.016;2023-02-15T17:44:14;11.50;96.00
44579;DHT22;37422;51.402;0.016;2023-02-15T17:46:42;11.50;96.30
44579;DHT22;37422;51.402;0.016;2023-02-15T17:49:24;11.50;96.20
44579;DHT22;37422;51.402;0.016;2023-02-15T17:51:52;11.40;96.40
44579;DHT22;37422;51.402;0.016;2023-02-15T17:54:19;11.30;96.90
44579;DHT22;37422;51.402;0.016;2023-02-15T17:57:12;11.30;96.70
44579;DHT22;37422;51.402;0.016;2023-02-15T17:59:40;11.20;97.20
44579;DHT22;37422;51.402;0.016;2023-02-15T18:02:27;11.20;97.20
44579;DHT22;37422;51.402;0.016;2023-02-15T18:05:19;11.20;97.50
44579;DHT22;37422;51.402;0.016;2023-02-15T18:08:12;11.10;97.20
44579;DHT22;37422;51.402;0.016;2023-02-15T18:10:58;11.10;97.60
44579;DHT22;37422;51.402;0.016;2023-02-15T18:13:45;11.10;97.80
44579;DHT22;37422;51.402;0.016;2023-02-15T18:16:14;11.10;98.00
44579;DHT22;37422;51.402;0.016;2023-02-15T18:18:43;11.10;98.20
44579;DHT22;37422;51.402;0.016;2023-02-15T18:21:11;11.10;98.30
44579;DHT22;37422;51.402;0.016;2023-02-15T18:23:39;11.20;98.30
44579;DHT22;37422;51.402;0.016;2023-02-15T18:26:08;11.20;98.50
44579;DHT22;37422;51.402;0.016;2023-02-15T18:28:39;11.20;98.80
44579;DHT22;37422;51.402;0.016;2023-02-15T18:31:09;11.20;98.70
44579;DHT22;37422;51.402;0.016;2023-02-15T18:33:41;11.20;98.80
44579;DHT22;37422;51.402;0.016;2023-02-15T18:36:13;11.20;99.00
44579;DHT22;37422;51.402;0.016;2023-02-15T18:38:41;11.20;98.70
44579;DHT22;37422;51.402;0.016;2023-02-15T18:41:11;11.20;98.90
44579;DHT22;37422;51.402;0.016;2023-02-15T18:43:41;11.20;99.10
44579;DHT22;37422;51.402;0.016;2023-02-15T18:46:09;11.10;99.70
44579;DHT22;37422;51.402;0.016;2023-02-15T18:48:37;11.20;99.90
44579;DHT22;37422;51.402;0.016;2023-02-15T18:51:04;11.10;99.70
44579;DHT22;37422;51.402;0.016;2023-02-15T18:53:36;11.10;99.70
44579;DHT22;37422;51.402;0.016;2023-02-15T18:56:04;11.10;99.90
44579;DHT22;37422;51.402;0.016;2023-02-15T18:58:31;11.00;99.90
44579;DHT22;37422;51.402;0.016;2023-02-15T19:00:59;11.00;99.90
44579;DHT22;37422;51.402;0.016;2023-02-15T19:03:27;11.00;99.90
44579;DHT22;37422;51.402;0.016;2023-02-15T19:05:55;10.90;99.90
44579;DHT22;37422;51.402;0.016;2023-02-15T19:08:24;10.90;99.90
44579;DHT22;37422;51.402;0.016;2023-02-15T19:10:51;10.90;99.90
44579;DHT22;37422;51.402;0.016;2023-02-15T19:13:19;10.90;99.90
44579;DHT22;37422;51.402;0.016;2023-02-15T19:15:47;10.80;99.90
44579;DHT22;37422;51.402;0.016;2023-02-15T19:18:16;10.80;99.90
44579;DHT22;37422;51.402;0.016;2023-02-15T19:20:46;10.80;99.90
44579;DHT22;37422;51.402;0.016;2023-02-15T19:23:17;10.80;99.90
44579;DHT22;37422;51.402;0.016;2023-02-15T19:25:47;10.80;99.90
44579;DHT22;37422;51.402;0.016;2023-02-15T19:28:32;10.70;99.90
44579;DHT22;37422;51.402;0.016;2023-02-15T19:31:14;10.70;99.90
44579;DHT22;37422;51.402;0.016;2023-02-15T19:33:54;10.70;99.90
44579;DHT22;37422;51.402;0.016;2023-02-15T19:36:30;10.70;99.90
44579;DHT22;37422;51.402;0.016;2023-02-15T19:39:00;10.60;99.90
44579;DHT22;37422;51.402;0.016;2023-02-15T19:41:35;10.60;99.90
44579;DHT22;37422;51.402;0.016;2023-02-15T19:44:17;10.60;99.90
44579;DHT22;37422;51.402;0.016;2023-02-15T19:46:58;10.60;99.90
44579;DHT22;37422;51.402;0.016;2023-02-15T19:50:32;10.60;99.90
44579;DHT22;37422;51.402;0.016;2023-02-15T19:53:35;10.60;99.90
44579;DHT22;37422;51.402;0.016;2023-02-15T19:56:03;10.50;99.90
44579;DHT22;37422;51.402;0.016;2023-02-15T19:58:40;10.50;99.90
44579;DHT22;37422;51.402;0.016;2023-02-15T20:01:08;10.50;99.90
44579;DHT22;37422;51.402;0.016;2023-02-15T20:03:39;10.50;99.90
44579;DHT22;37422;51.402;0.016;2023-02-15T20:06:09;10.50;99.90